KVJI/VJI METAR and TAF weather

Enter ICAO airport designator
Station Type Date Time Source
KVJI METAR 2019/09/20 20:15 UTC NOAA

KVJI 202015Z AUTO 00000KT 10SM SCT065 SCT075 25/15 A3028 RMK AO2 T02500148


Station Type Date Time Source
KVJI Decoded METAR 2019/09/20 20:15 UTC NOAA

Abingdon, VA, United States (KVJI) 36-41N 082-02W
Sep 20, 2019 - 04:15 PM EDT / 2019.09.20 2015 UTC
Wind: Calm:0
Visibility: 10 mile(s):0
Sky conditions: partly cloudy
Temperature: 77.0 F (25.0 C)
Dew Point: 58.6 F (14.8 C)
Relative Humidity: 53%
Pressure (altimeter): 30.28 in. Hg (1025 hPa)
ob: KVJI 202015Z AUTO 00000KT 10SM SCT065 SCT075 25/15 A3028 RMK AO2 T02500148
cycle: 20

Station Type Date Time Source
KVJI TAF UTC NOAA

Error!

Example: see airport list